sensor_id;sensor_type;location;lat;lon;timestamp;P1;durP1;ratioP1;P2;durP2;ratioP2
13067;SDS011;6600;51.362;6.686;2022-10-31T00:01:59;4.67;;;2.67;;
13067;SDS011;6600;51.362;6.686;2022-10-31T00:04:24;4.53;;;2.60;;
13067;SDS011;6600;51.362;6.686;2022-10-31T00:06:49;3.20;;;2.87;;
13067;SDS011;6600;51.362;6.686;2022-10-31T00:09:15;5.83;;;3.10;;
13067;SDS011;6600;51.362;6.686;2022-10-31T00:11:40;3.40;;;2.90;;
13067;SDS011;6600;51.362;6.686;2022-10-31T00:14:05;6.17;;;3.13;;
13067;SDS011;6600;51.362;6.686;2022-10-31T00:16:31;6.53;;;2.97;;
13067;SDS011;6600;51.362;6.686;2022-10-31T00:19:00;4.43;;;3.37;;
13067;SDS011;6600;51.362;6.686;2022-10-31T00:21:28;3.27;;;2.63;;
13067;SDS011;6600;51.362;6.686;2022-10-31T00:23:55;5.40;;;3.53;;
13067;SDS011;6600;51.362;6.686;2022-10-31T00:26:22;4.97;;;2.37;;
13067;SDS011;6600;51.362;6.686;2022-10-31T00:28:47;5.70;;;3.07;;
13067;SDS011;6600;51.362;6.686;2022-10-31T00:31:13;4.20;;;3.10;;
13067;SDS011;6600;51.362;6.686;2022-10-31T00:33:39;4.03;;;2.87;;
13067;SDS011;6600;51.362;6.686;2022-10-31T00:36:06;3.60;;;2.60;;
13067;SDS011;6600;51.362;6.686;2022-10-31T00:38:32;4.47;;;3.00;;
13067;SDS011;6600;51.362;6.686;2022-10-31T00:40:58;4.03;;;2.80;;
13067;SDS011;6600;51.362;6.686;2022-10-31T00:43:23;5.07;;;2.90;;
13067;SDS011;6600;51.362;6.686;2022-10-31T00:45:49;3.90;;;2.73;;
13067;SDS011;6600;51.362;6.686;2022-10-31T00:48:15;4.47;;;2.87;;
13067;SDS011;6600;51.362;6.686;2022-10-31T00:50:41;5.63;;;2.90;;
13067;SDS011;6600;51.362;6.686;2022-10-31T00:53:06;5.03;;;3.17;;
13067;SDS011;6600;51.362;6.686;2022-10-31T00:55:32;5.80;;;3.37;;
13067;SDS011;6600;51.362;6.686;2022-10-31T00:57:57;4.93;;;2.93;;
13067;SDS011;6600;51.362;6.686;2022-10-31T01:00:22;4.60;;;2.83;;
13067;SDS011;6600;51.362;6.686;2022-10-31T01:02:48;5.33;;;3.47;;
13067;SDS011;6600;51.362;6.686;2022-10-31T01:05:13;5.53;;;2.83;;
13067;SDS011;6600;51.362;6.686;2022-10-31T01:07:39;4.10;;;3.10;;
13067;SDS011;6600;51.362;6.686;2022-10-31T01:10:06;6.63;;;3.57;;
13067;SDS011;6600;51.362;6.686;2022-10-31T01:12:42;4.93;;;3.60;;
13067;SDS011;6600;51.362;6.686;2022-10-31T01:15:09;7.37;;;3.27;;
13067;SDS011;6600;51.362;6.686;2022-10-31T01:17:36;3.57;;;2.90;;
13067;SDS011;6600;51.362;6.686;2022-10-31T01:20:01;6.20;;;3.90;;
13067;SDS011;6600;51.362;6.686;2022-10-31T01:22:28;5.00;;;3.47;;
13067;SDS011;6600;51.362;6.686;2022-10-31T01:24:54;4.40;;;2.80;;
13067;SDS011;6600;51.362;6.686;2022-10-31T01:27:19;3.30;;;2.50;;
13067;SDS011;6600;51.362;6.686;2022-10-31T01:29:44;3.00;;;2.50;;
13067;SDS011;6600;51.362;6.686;2022-10-31T01:32:10;4.83;;;3.40;;
13067;SDS011;6600;51.362;6.686;2022-10-31T01:34:35;4.40;;;2.90;;
13067;SDS011;6600;51.362;6.686;2022-10-31T01:37:00;4.67;;;3.00;;
13067;SDS011;6600;51.362;6.686;2022-10-31T01:39:26;4.80;;;3.20;;
13067;SDS011;6600;51.362;6.686;2022-10-31T01:41:52;4.13;;;3.50;;
13067;SDS011;6600;51.362;6.686;2022-10-31T01:49:22;6.07;;;3.13;;
13067;SDS011;6600;51.362;6.686;2022-10-31T01:51:56;3.67;;;2.77;;
13067;SDS011;6600;51.362;6.686;2022-10-31T01:54:23;4.50;;;3.00;;
13067;SDS011;6600;51.362;6.686;2022-10-31T01:56:55;4.00;;;2.87;;
13067;SDS011;6600;51.362;6.686;2022-10-31T01:59:23;7.47;;;2.70;;
13067;SDS011;6600;51.362;6.686;2022-10-31T02:01:54;4.90;;;3.10;;
13067;SDS011;6600;51.362;6.686;2022-10-31T02:04:20;3.43;;;2.93;;
13067;SDS011;6600;51.362;6.686;2022-10-31T02:06:53;5.63;;;3.00;;
13067;SDS011;6600;51.362;6.686;2022-10-31T02:09:23;2.60;;;2.10;;
13067;SDS011;6600;51.362;6.686;2022-10-31T02:11:54;5.60;;;3.27;;
13067;SDS011;6600;51.362;6.686;2022-10-31T02:14:22;5.30;;;3.30;;
13067;SDS011;6600;51.362;6.686;2022-10-31T02:16:49;2.77;;;2.50;;
13067;SDS011;6600;51.362;6.686;2022-10-31T02:19:17;4.33;;;3.40;;
13067;SDS011;6600;51.362;6.686;2022-10-31T02:21:49;3.10;;;2.83;;
13067;SDS011;6600;51.362;6.686;2022-10-31T02:24:44;5.63;;;2.80;;
13067;SDS011;6600;51.362;6.686;2022-10-31T02:32:33;4.97;;;2.87;;
13067;SDS011;6600;51.362;6.686;2022-10-31T02:35:10;3.53;;;2.57;;
13067;SDS011;6600;51.362;6.686;2022-10-31T02:38:00;4.70;;;2.87;;
13067;SDS011;6600;51.362;6.686;2022-10-31T02:40:47;3.83;;;2.47;;
13067;SDS011;6600;51.362;6.686;2022-10-31T02:43:21;2.60;;;2.40;;
13067;SDS011;6600;51.362;6.686;2022-10-31T02:48:47;6.40;;;3.10;;
13067;SDS011;6600;51.362;6.686;2022-10-31T02:51:15;4.33;;;2.80;;
13067;SDS011;6600;51.362;6.686;2022-10-31T02:53:42;3.57;;;2.67;;
13067;SDS011;6600;51.362;6.686;2022-10-31T02:56:14;4.27;;;2.50;;
13067;SDS011;6600;51.362;6.686;2022-10-31T03:01:39;5.83;;;3.13;;
13067;SDS011;6600;51.362;6.686;2022-10-31T03:04:31;3.87;;;2.40;;
13067;SDS011;6600;51.362;6.686;2022-10-31T03:07:34;3.20;;;2.50;;
13067;SDS011;6600;51.362;6.686;2022-10-31T03:13:12;3.70;;;2.60;;
13067;SDS011;6600;51.362;6.686;2022-10-31T03:19:00;4.87;;;2.60;;
13067;SDS011;6600;51.362;6.686;2022-10-31T03:24:02;4.37;;;2.93;;
13067;SDS011;6600;51.362;6.686;2022-10-31T03:26:31;4.03;;;2.63;;
13067;SDS011;6600;51.362;6.686;2022-10-31T03:29:00;3.87;;;2.90;;
13067;SDS011;6600;51.362;6.686;2022-10-31T03:31:33;5.77;;;2.60;;
13067;SDS011;6600;51.362;6.686;2022-10-31T03:34:04;3.47;;;2.70;;
13067;SDS011;6600;51.362;6.686;2022-10-31T03:36:33;4.53;;;2.87;;
13067;SDS011;6600;51.362;6.686;2022-10-31T03:39:02;7.40;;;2.87;;
13067;SDS011;6600;51.362;6.686;2022-10-31T03:41:32;6.67;;;2.63;;
13067;SDS011;6600;51.362;6.686;2022-10-31T03:44:05;2.90;;;2.60;;
13067;SDS011;6600;51.362;6.686;2022-10-31T03:46:35;3.17;;;2.63;;
13067;SDS011;6600;51.362;6.686;2022-10-31T03:49:01;3.47;;;3.00;;
13067;SDS011;6600;51.362;6.686;2022-10-31T03:51:34;4.97;;;3.43;;
13067;SDS011;6600;51.362;6.686;2022-10-31T03:56:56;2.97;;;2.50;;
13067;SDS011;6600;51.362;6.686;2022-10-31T03:59:32;6.23;;;2.70;;
13067;SDS011;6600;51.362;6.686;2022-10-31T04:02:10;3.40;;;2.33;;
13067;SDS011;6600;51.362;6.686;2022-10-31T04:04:39;2.80;;;2.53;;
13067;SDS011;6600;51.362;6.686;2022-10-31T04:07:05;3.90;;;3.00;;
13067;SDS011;6600;51.362;6.686;2022-10-31T04:09:33;3.40;;;2.87;;
13067;SDS011;6600;51.362;6.686;2022-10-31T04:12:01;3.73;;;2.17;;
13067;SDS011;6600;51.362;6.686;2022-10-31T04:14:31;3.80;;;2.43;;
13067;SDS011;6600;51.362;6.686;2022-10-31T04:16:58;3.47;;;2.10;;
13067;SDS011;6600;51.362;6.686;2022-10-31T04:19:27;5.97;;;2.20;;
13067;SDS011;6600;51.362;6.686;2022-10-31T04:21:52;5.27;;;2.50;;
13067;SDS011;6600;51.362;6.686;2022-10-31T04:24:17;6.10;;;3.27;;
13067;SDS011;6600;51.362;6.686;2022-10-31T04:26:43;3.27;;;2.97;;
13067;SDS011;6600;51.362;6.686;2022-10-31T04:29:08;4.60;;;2.70;;
13067;SDS011;6600;51.362;6.686;2022-10-31T04:31:33;4.10;;;2.90;;
13067;SDS011;6600;51.362;6.686;2022-10-31T04:33:59;4.30;;;2.70;;
13067;SDS011;6600;51.362;6.686;2022-10-31T04:36:24;3.33;;;2.57;;
13067;SDS011;6600;51.362;6.686;2022-10-31T04:38:49;7.57;;;3.00;;
13067;SDS011;6600;51.362;6.686;2022-10-31T04:41:14;2.87;;;2.50;;
13067;SDS011;6600;51.362;6.686;2022-10-31T04:43:40;3.10;;;2.80;;
13067;SDS011;6600;51.362;6.686;2022-10-31T04:46:05;3.73;;;2.70;;
13067;SDS011;6600;51.362;6.686;2022-10-31T04:48:30;2.73;;;2.20;;
13067;SDS011;6600;51.362;6.686;2022-10-31T04:50:59;4.80;;;3.00;;
13067;SDS011;6600;51.362;6.686;2022-10-31T04:53:25;3.70;;;2.77;;
13067;SDS011;6600;51.362;6.686;2022-10-31T04:55:50;4.47;;;3.03;;
13067;SDS011;6600;51.362;6.686;2022-10-31T04:58:16;3.53;;;2.60;;
13067;SDS011;6600;51.362;6.686;2022-10-31T05:00:41;4.47;;;2.20;;
13067;SDS011;6600;51.362;6.686;2022-10-31T05:03:06;4.17;;;2.33;;
13067;SDS011;6600;51.362;6.686;2022-10-31T05:05:32;4.37;;;2.80;;
13067;SDS011;6600;51.362;6.686;2022-10-31T05:07:57;5.93;;;3.10;;
13067;SDS011;6600;51.362;6.686;2022-10-31T05:10:23;3.17;;;2.77;;
13067;SDS011;6600;51.362;6.686;2022-10-31T05:12:51;3.57;;;1.93;;
13067;SDS011;6600;51.362;6.686;2022-10-31T05:15:19;7.00;;;2.80;;
13067;SDS011;6600;51.362;6.686;2022-10-31T05:17:45;4.17;;;2.63;;
13067;SDS011;6600;51.362;6.686;2022-10-31T05:20:11;3.23;;;2.80;;
13067;SDS011;6600;51.362;6.686;2022-10-31T05:22:41;4.67;;;2.60;;
13067;SDS011;6600;51.362;6.686;2022-10-31T05:25:14;3.83;;;2.37;;
13067;SDS011;6600;51.362;6.686;2022-10-31T05:27:42;4.53;;;2.63;;
13067;SDS011;6600;51.362;6.686;2022-10-31T05:30:09;5.30;;;3.03;;
13067;SDS011;6600;51.362;6.686;2022-10-31T05:32:36;3.73;;;2.30;;
13067;SDS011;6600;51.362;6.686;2022-10-31T05:35:07;3.97;;;2.30;;
13067;SDS011;6600;51.362;6.686;2022-10-31T05:37:34;4.03;;;2.37;;
13067;SDS011;6600;51.362;6.686;2022-10-31T05:40:00;4.43;;;3.00;;
13067;SDS011;6600;51.362;6.686;2022-10-31T05:42:26;6.37;;;3.13;;
13067;SDS011;6600;51.362;6.686;2022-10-31T05:44:51;3.00;;;2.27;;
13067;SDS011;6600;51.362;6.686;2022-10-31T05:47:17;6.27;;;2.90;;
13067;SDS011;6600;51.362;6.686;2022-10-31T05:49:42;3.83;;;2.60;;
13067;SDS011;6600;51.362;6.686;2022-10-31T05:52:07;2.40;;;2.20;;
13067;SDS011;6600;51.362;6.686;2022-10-31T05:54:32;5.00;;;2.83;;
13067;SDS011;6600;51.362;6.686;2022-10-31T05:56:58;3.93;;;2.63;;
13067;SDS011;6600;51.362;6.686;2022-10-31T05:59:23;4.47;;;3.23;;
13067;SDS011;6600;51.362;6.686;2022-10-31T06:01:48;4.17;;;3.10;;
13067;SDS011;6600;51.362;6.686;2022-10-31T06:04:14;2.93;;;2.00;;
13067;SDS011;6600;51.362;6.686;2022-10-31T06:06:39;4.57;;;3.10;;
13067;SDS011;6600;51.362;6.686;2022-10-31T06:09:04;4.73;;;3.10;;
13067;SDS011;6600;51.362;6.686;2022-10-31T06:11:30;4.20;;;3.20;;
13067;SDS011;6600;51.362;6.686;2022-10-31T06:13:55;4.40;;;2.67;;
13067;SDS011;6600;51.362;6.686;2022-10-31T06:16:20;4.30;;;2.70;;
13067;SDS011;6600;51.362;6.686;2022-10-31T06:18:46;4.03;;;3.07;;
13067;SDS011;6600;51.362;6.686;2022-10-31T06:21:12;2.93;;;2.53;;
13067;SDS011;6600;51.362;6.686;2022-10-31T06:23:37;5.37;;;3.13;;
13067;SDS011;6600;51.362;6.686;2022-10-31T06:26:02;4.87;;;2.93;;
13067;SDS011;6600;51.362;6.686;2022-10-31T06:28:27;5.67;;;3.07;;
13067;SDS011;6600;51.362;6.686;2022-10-31T06:30:53;3.90;;;2.77;;
13067;SDS011;6600;51.362;6.686;2022-10-31T06:33:18;6.37;;;3.00;;
13067;SDS011;6600;51.362;6.686;2022-10-31T06:35:46;3.73;;;2.80;;
13067;SDS011;6600;51.362;6.686;2022-10-31T06:38:12;5.33;;;2.70;;
13067;SDS011;6600;51.362;6.686;2022-10-31T06:40:38;3.57;;;2.70;;
13067;SDS011;6600;51.362;6.686;2022-10-31T06:43:03;3.20;;;2.90;;
13067;SDS011;6600;51.362;6.686;2022-10-31T06:45:28;5.10;;;2.83;;
13067;SDS011;6600;51.362;6.686;2022-10-31T06:47:54;5.97;;;3.10;;
13067;SDS011;6600;51.362;6.686;2022-10-31T06:50:21;3.57;;;2.33;;
13067;SDS011;6600;51.362;6.686;2022-10-31T06:52:50;3.23;;;2.63;;
13067;SDS011;6600;51.362;6.686;2022-10-31T06:55:19;5.80;;;2.97;;
13067;SDS011;6600;51.362;6.686;2022-10-31T06:57:51;3.73;;;2.33;;
13067;SDS011;6600;51.362;6.686;2022-10-31T07:00:18;3.57;;;2.57;;
13067;SDS011;6600;51.362;6.686;2022-10-31T07:02:51;3.73;;;3.17;;
13067;SDS011;6600;51.362;6.686;2022-10-31T07:05:18;4.27;;;2.70;;
13067;SDS011;6600;51.362;6.686;2022-10-31T07:07:43;4.87;;;3.17;;
13067;SDS011;6600;51.362;6.686;2022-10-31T07:10:08;3.23;;;2.13;;
13067;SDS011;6600;51.362;6.686;2022-10-31T07:12:33;4.87;;;2.60;;
13067;SDS011;6600;51.362;6.686;2022-10-31T07:14:59;3.77;;;2.37;;
13067;SDS011;6600;51.362;6.686;2022-10-31T07:17:24;5.47;;;3.10;;
13067;SDS011;6600;51.362;6.686;2022-10-31T07:19:49;3.37;;;2.40;;
13067;SDS011;6600;51.362;6.686;2022-10-31T07:22:15;5.70;;;2.50;;
13067;SDS011;6600;51.362;6.686;2022-10-31T07:24:40;6.67;;;3.00;;
13067;SDS011;6600;51.362;6.686;2022-10-31T07:27:05;4.63;;;2.27;;
13067;SDS011;6600;51.362;6.686;2022-10-31T07:29:30;4.40;;;3.17;;
13067;SDS011;6600;51.362;6.686;2022-10-31T07:31:56;3.50;;;2.60;;
13067;SDS011;6600;51.362;6.686;2022-10-31T07:34:21;7.43;;;3.23;;
13067;SDS011;6600;51.362;6.686;2022-10-31T07:36:46;5.73;;;2.90;;
13067;SDS011;6600;51.362;6.686;2022-10-31T07:39:12;5.43;;;3.97;;
13067;SDS011;6600;51.362;6.686;2022-10-31T07:41:37;6.13;;;3.03;;
13067;SDS011;6600;51.362;6.686;2022-10-31T07:44:02;5.00;;;3.30;;
13067;SDS011;6600;51.362;6.686;2022-10-31T07:46:28;6.23;;;3.30;;
13067;SDS011;6600;51.362;6.686;2022-10-31T07:48:53;3.67;;;2.83;;
13067;SDS011;6600;51.362;6.686;2022-10-31T07:51:18;4.57;;;3.30;;
13067;SDS011;6600;51.362;6.686;2022-10-31T07:53:44;5.33;;;2.93;;
13067;SDS011;6600;51.362;6.686;2022-10-31T07:56:09;6.33;;;3.10;;
13067;SDS011;6600;51.362;6.686;2022-10-31T07:58:35;6.83;;;3.13;;
13067;SDS011;6600;51.362;6.686;2022-10-31T08:01:00;8.70;;;3.63;;
13067;SDS011;6600;51.362;6.686;2022-10-31T08:03:25;5.90;;;3.97;;
13067;SDS011;6600;51.362;6.686;2022-10-31T08:05:51;5.23;;;3.67;;
13067;SDS011;6600;51.362;6.686;2022-10-31T08:08:16;7.90;;;3.93;;
13067;SDS011;6600;51.362;6.686;2022-10-31T08:10:41;5.67;;;3.30;;
13067;SDS011;6600;51.362;6.686;2022-10-31T08:13:11;5.33;;;3.33;;
13067;SDS011;6600;51.362;6.686;2022-10-31T08:15:37;3.83;;;2.97;;
13067;SDS011;6600;51.362;6.686;2022-10-31T08:18:05;7.03;;;3.80;;
13067;SDS011;6600;51.362;6.686;2022-10-31T08:20:31;4.90;;;3.53;;
13067;SDS011;6600;51.362;6.686;2022-10-31T08:22:57;6.17;;;3.73;;
13067;SDS011;6600;51.362;6.686;2022-10-31T08:25:24;7.23;;;4.33;;
13067;SDS011;6600;51.362;6.686;2022-10-31T08:27:51;10.80;;;4.60;;
13067;SDS011;6600;51.362;6.686;2022-10-31T08:30:18;6.03;;;3.87;;
13067;SDS011;6600;51.362;6.686;2022-10-31T08:32:44;7.27;;;3.57;;
13067;SDS011;6600;51.362;6.686;2022-10-31T08:35:10;6.13;;;3.97;;
13067;SDS011;6600;51.362;6.686;2022-10-31T08:37:36;7.73;;;3.70;;
13067;SDS011;6600;51.362;6.686;2022-10-31T08:40:01;5.23;;;4.27;;
13067;SDS011;6600;51.362;6.686;2022-10-31T08:42:26;7.50;;;3.77;;
13067;SDS011;6600;51.362;6.686;2022-10-31T08:44:52;5.90;;;4.13;;
13067;SDS011;6600;51.362;6.686;2022-10-31T08:47:17;6.80;;;4.07;;
13067;SDS011;6600;51.362;6.686;2022-10-31T08:49:42;7.93;;;4.30;;
13067;SDS011;6600;51.362;6.686;2022-10-31T08:52:07;10.30;;;4.47;;
13067;SDS011;6600;51.362;6.686;2022-10-31T08:54:33;5.43;;;3.80;;
13067;SDS011;6600;51.362;6.686;2022-10-31T08:56:58;5.53;;;4.40;;
13067;SDS011;6600;51.362;6.686;2022-10-31T08:59:23;5.83;;;3.90;;
13067;SDS011;6600;51.362;6.686;2022-10-31T09:01:49;7.50;;;3.97;;
13067;SDS011;6600;51.362;6.686;2022-10-31T09:04:14;6.73;;;4.67;;
13067;SDS011;6600;51.362;6.686;2022-10-31T09:06:40;10.67;;;4.60;;
13067;SDS011;6600;51.362;6.686;2022-10-31T09:09:05;7.07;;;4.40;;
13067;SDS011;6600;51.362;6.686;2022-10-31T09:11:30;4.63;;;3.53;;
13067;SDS011;6600;51.362;6.686;2022-10-31T09:13:56;9.20;;;3.90;;
13067;SDS011;6600;51.362;6.686;2022-10-31T09:16:21;6.17;;;4.43;;
13067;SDS011;6600;51.362;6.686;2022-10-31T09:18:47;5.70;;;3.80;;
13067;SDS011;6600;51.362;6.686;2022-10-31T09:21:12;5.73;;;4.40;;
13067;SDS011;6600;51.362;6.686;2022-10-31T09:23:37;6.97;;;4.13;;
13067;SDS011;6600;51.362;6.686;2022-10-31T09:26:03;6.53;;;3.70;;
13067;SDS011;6600;51.362;6.686;2022-10-31T09:28:28;6.07;;;3.73;;
13067;SDS011;6600;51.362;6.686;2022-10-31T09:30:54;6.10;;;3.83;;
13067;SDS011;6600;51.362;6.686;2022-10-31T09:33:19;7.73;;;4.33;;
13067;SDS011;6600;51.362;6.686;2022-10-31T09:35:45;6.53;;;3.83;;
13067;SDS011;6600;51.362;6.686;2022-10-31T09:38:12;8.90;;;4.57;;
13067;SDS011;6600;51.362;6.686;2022-10-31T09:40:42;4.70;;;3.53;;
13067;SDS011;6600;51.362;6.686;2022-10-31T09:52:13;7.90;;;3.87;;
13067;SDS011;6600;51.362;6.686;2022-10-31T09:54:47;9.07;;;4.30;;
13067;SDS011;6600;51.362;6.686;2022-10-31T09:57:20;7.00;;;3.10;;
13067;SDS011;6600;51.362;6.686;2022-10-31T09:59:50;6.37;;;3.93;;
13067;SDS011;6600;51.362;6.686;2022-10-31T10:02:18;5.53;;;3.80;;
13067;SDS011;6600;51.362;6.686;2022-10-31T10:10:13;7.53;;;3.80;;
13067;SDS011;6600;51.362;6.686;2022-10-31T10:18:30;6.37;;;3.80;;
13067;SDS011;6600;51.362;6.686;2022-10-31T10:26:37;6.30;;;3.83;;
13067;SDS011;6600;51.362;6.686;2022-10-31T10:30:11;5.93;;;4.37;;
13067;SDS011;6600;51.362;6.686;2022-10-31T10:32:09;5.77;;;3.50;;
13067;SDS011;6600;51.362;6.686;2022-10-31T10:34:45;8.37;;;4.07;;
13067;SDS011;6600;51.362;6.686;2022-10-31T10:37:34;7.63;;;4.40;;
13067;SDS011;6600;51.362;6.686;2022-10-31T10:40:11;7.07;;;4.23;;
13067;SDS011;6600;51.362;6.686;2022-10-31T10:42:41;4.63;;;3.60;;
13067;SDS011;6600;51.362;6.686;2022-10-31T10:45:34;7.10;;;3.80;;
13067;SDS011;6600;51.362;6.686;2022-10-31T10:51:44;9.03;;;4.30;;
13067;SDS011;6600;51.362;6.686;2022-10-31T10:54:42;14.60;;;4.63;;
13067;SDS011;6600;51.362;6.686;2022-10-31T11:00:00;13.40;;;4.17;;
13067;SDS011;6600;51.362;6.686;2022-10-31T11:02:27;9.90;;;4.67;;
13067;SDS011;6600;51.362;6.686;2022-10-31T11:04:57;6.33;;;3.97;;
13067;SDS011;6600;51.362;6.686;2022-10-31T11:07:24;6.70;;;4.27;;
13067;SDS011;6600;51.362;6.686;2022-10-31T11:09:49;7.27;;;4.63;;
13067;SDS011;6600;51.362;6.686;2022-10-31T11:14:54;6.27;;;3.90;;
13067;SDS011;6600;51.362;6.686;2022-10-31T11:17:31;6.20;;;4.60;;
13067;SDS011;6600;51.362;6.686;2022-10-31T11:22:48;9.10;;;5.27;;
13067;SDS011;6600;51.362;6.686;2022-10-31T11:25:20;9.83;;;4.53;;
13067;SDS011;6600;51.362;6.686;2022-10-31T11:28:09;7.30;;;4.63;;
13067;SDS011;6600;51.362;6.686;2022-10-31T11:31:34;8.03;;;4.13;;
13067;SDS011;6600;51.362;6.686;2022-10-31T11:33:47;7.27;;;3.87;;
13067;SDS011;6600;51.362;6.686;2022-10-31T11:36:16;7.87;;;4.17;;
13067;SDS011;6600;51.362;6.686;2022-10-31T11:38:46;8.67;;;4.13;;
13067;SDS011;6600;51.362;6.686;2022-10-31T11:41:31;9.83;;;4.00;;
13067;SDS011;6600;51.362;6.686;2022-10-31T11:44:44;6.80;;;4.27;;
13067;SDS011;6600;51.362;6.686;2022-10-31T11:46:52;8.10;;;4.20;;
13067;SDS011;6600;51.362;6.686;2022-10-31T11:49:23;5.83;;;3.80;;
13067;SDS011;6600;51.362;6.686;2022-10-31T11:51:55;5.47;;;4.03;;
13067;SDS011;6600;51.362;6.686;2022-10-31T11:54:24;9.60;;;4.40;;
13067;SDS011;6600;51.362;6.686;2022-10-31T11:56:52;6.17;;;4.30;;
13067;SDS011;6600;51.362;6.686;2022-10-31T11:59:28;9.40;;;3.87;;
13067;SDS011;6600;51.362;6.686;2022-10-31T12:01:56;6.37;;;3.40;;
13067;SDS011;6600;51.362;6.686;2022-10-31T12:04:25;5.77;;;3.80;;
13067;SDS011;6600;51.362;6.686;2022-10-31T12:06:56;6.10;;;4.30;;
13067;SDS011;6600;51.362;6.686;2022-10-31T12:09:26;5.47;;;4.03;;
13067;SDS011;6600;51.362;6.686;2022-10-31T12:14:46;5.40;;;3.87;;
13067;SDS011;6600;51.362;6.686;2022-10-31T12:17:23;6.27;;;3.83;;
13067;SDS011;6600;51.362;6.686;2022-10-31T12:19:59;8.30;;;3.97;;
13067;SDS011;6600;51.362;6.686;2022-10-31T12:30:30;9.57;;;4.13;;
13067;SDS011;6600;51.362;6.686;2022-10-31T13:01:01;4.43;;;2.53;;
13067;SDS011;6600;51.362;6.686;2022-10-31T13:03:35;3.67;;;2.13;;
13067;SDS011;6600;51.362;6.686;2022-10-31T13:06:14;2.33;;;2.13;;
13067;SDS011;6600;51.362;6.686;2022-10-31T13:11:19;2.07;;;1.70;;
13067;SDS011;6600;51.362;6.686;2022-10-31T13:16:34;2.10;;;1.77;;
13067;SDS011;6600;51.362;6.686;2022-10-31T13:19:05;2.23;;;1.80;;
13067;SDS011;6600;51.362;6.686;2022-10-31T13:21:35;3.17;;;1.97;;
13067;SDS011;6600;51.362;6.686;2022-10-31T13:24:09;2.07;;;1.70;;
13067;SDS011;6600;51.362;6.686;2022-10-31T13:26:48;1.60;;;1.50;;
13067;SDS011;6600;51.362;6.686;2022-10-31T13:29:19;2.87;;;1.60;;
13067;SDS011;6600;51.362;6.686;2022-10-31T13:31:49;2.83;;;1.70;;
13067;SDS011;6600;51.362;6.686;2022-10-31T13:34:20;3.07;;;1.80;;
13067;SDS011;6600;51.362;6.686;2022-10-31T13:36:55;2.57;;;1.97;;
13067;SDS011;6600;51.362;6.686;2022-10-31T13:42:00;2.17;;;1.40;;
13067;SDS011;6600;51.362;6.686;2022-10-31T13:44:35;3.80;;;2.00;;
13067;SDS011;6600;51.362;6.686;2022-10-31T13:47:03;3.47;;;1.63;;
13067;SDS011;6600;51.362;6.686;2022-10-31T13:52:12;1.97;;;1.60;;
13067;SDS011;6600;51.362;6.686;2022-10-31T13:54:44;4.63;;;1.80;;
13067;SDS011;6600;51.362;6.686;2022-10-31T14:02:53;3.70;;;1.57;;
13067;SDS011;6600;51.362;6.686;2022-10-31T14:05:29;1.80;;;1.57;;
13067;SDS011;6600;51.362;6.686;2022-10-31T14:07:58;1.70;;;1.50;;
13067;SDS011;6600;51.362;6.686;2022-10-31T14:10:29;1.60;;;1.50;;
13067;SDS011;6600;51.362;6.686;2022-10-31T14:13:07;2.30;;;1.60;;
13067;SDS011;6600;51.362;6.686;2022-10-31T14:18:30;2.10;;;1.47;;
13067;SDS011;6600;51.362;6.686;2022-10-31T14:20:58;2.37;;;1.30;;
13067;SDS011;6600;51.362;6.686;2022-10-31T14:23:31;1.93;;;1.27;;
13067;SDS011;6600;51.362;6.686;2022-10-31T14:28:44;1.93;;;1.23;;
13067;SDS011;6600;51.362;6.686;2022-10-31T14:33:58;4.70;;;1.80;;
13067;SDS011;6600;51.362;6.686;2022-10-31T14:36:35;1.87;;;1.50;;
13067;SDS011;6600;51.362;6.686;2022-10-31T14:39:18;2.23;;;1.40;;
13067;SDS011;6600;51.362;6.686;2022-10-31T14:41:59;1.77;;;1.60;;
13067;SDS011;6600;51.362;6.686;2022-10-31T14:44:41;5.03;;;1.40;;
13067;SDS011;6600;51.362;6.686;2022-10-31T14:47:46;4.03;;;1.70;;
13067;SDS011;6600;51.362;6.686;2022-10-31T14:50:24;3.50;;;1.50;;
13067;SDS011;6600;51.362;6.686;2022-10-31T14:52:59;2.83;;;1.83;;
13067;SDS011;6600;51.362;6.686;2022-10-31T14:55:26;2.90;;;1.93;;
13067;SDS011;6600;51.362;6.686;2022-10-31T14:57:54;1.87;;;1.40;;
13067;SDS011;6600;51.362;6.686;2022-10-31T15:00:23;2.57;;;1.27;;
13067;SDS011;6600;51.362;6.686;2022-10-31T15:05:35;1.40;;;1.30;;
13067;SDS011;6600;51.362;6.686;2022-10-31T15:13:43;2.80;;;1.20;;
13067;SDS011;6600;51.362;6.686;2022-10-31T15:16:16;2.87;;;1.87;;
13067;SDS011;6600;51.362;6.686;2022-10-31T15:18:47;2.03;;;1.80;;
13067;SDS011;6600;51.362;6.686;2022-10-31T15:21:24;1.80;;;1.60;;
13067;SDS011;6600;51.362;6.686;2022-10-31T15:23:53;4.27;;;1.77;;
13067;SDS011;6600;51.362;6.686;2022-10-31T15:26:21;2.90;;;1.90;;
13067;SDS011;6600;51.362;6.686;2022-10-31T15:29:05;2.13;;;1.43;;
13067;SDS011;6600;51.362;6.686;2022-10-31T15:31:36;1.63;;;1.53;;
13067;SDS011;6600;51.362;6.686;2022-10-31T15:34:03;3.53;;;1.30;;
13067;SDS011;6600;51.362;6.686;2022-10-31T15:36:32;2.53;;;1.80;;
13067;SDS011;6600;51.362;6.686;2022-10-31T15:38:57;2.87;;;2.00;;
13067;SDS011;6600;51.362;6.686;2022-10-31T15:43:54;1.50;;;1.23;;
13067;SDS011;6600;51.362;6.686;2022-10-31T15:46:26;2.43;;;1.67;;
13067;SDS011;6600;51.362;6.686;2022-10-31T15:48:52;2.60;;;1.80;;
13067;SDS011;6600;51.362;6.686;2022-10-31T15:51:17;2.67;;;1.50;;
13067;SDS011;6600;51.362;6.686;2022-10-31T15:53:51;2.20;;;1.37;;
13067;SDS011;6600;51.362;6.686;2022-10-31T15:56:23;2.70;;;1.70;;
13067;SDS011;6600;51.362;6.686;2022-10-31T15:58:51;3.20;;;1.80;;
13067;SDS011;6600;51.362;6.686;2022-10-31T16:01:21;2.43;;;1.57;;
13067;SDS011;6600;51.362;6.686;2022-10-31T16:06:37;3.47;;;1.83;;
13067;SDS011;6600;51.362;6.686;2022-10-31T16:09:03;2.13;;;1.43;;
13067;SDS011;6600;51.362;6.686;2022-10-31T16:11:47;1.67;;;1.40;;
13067;SDS011;6600;51.362;6.686;2022-10-31T16:16:42;6.63;;;1.37;;
13067;SDS011;6600;51.362;6.686;2022-10-31T16:19:18;1.30;;;1.20;;
13067;SDS011;6600;51.362;6.686;2022-10-31T16:21:54;2.70;;;1.47;;
13067;SDS011;6600;51.362;6.686;2022-10-31T16:24:30;2.07;;;1.47;;
13067;SDS011;6600;51.362;6.686;2022-10-31T16:27:05;2.67;;;1.70;;
13067;SDS011;6600;51.362;6.686;2022-10-31T16:29:44;1.30;;;1.10;;
13067;SDS011;6600;51.362;6.686;2022-10-31T16:32:24;1.97;;;1.40;;
13067;SDS011;6600;51.362;6.686;2022-10-31T16:35:02;1.53;;;1.40;;
13067;SDS011;6600;51.362;6.686;2022-10-31T16:37:42;3.30;;;1.57;;
13067;SDS011;6600;51.362;6.686;2022-10-31T16:40:14;2.73;;;1.40;;
13067;SDS011;6600;51.362;6.686;2022-10-31T16:42:40;3.20;;;1.47;;
13067;SDS011;6600;51.362;6.686;2022-10-31T16:45:07;3.77;;;1.70;;
13067;SDS011;6600;51.362;6.686;2022-10-31T16:47:38;3.07;;;1.53;;
13067;SDS011;6600;51.362;6.686;2022-10-31T16:50:05;1.67;;;1.20;;
13067;SDS011;6600;51.362;6.686;2022-10-31T16:52:36;2.50;;;1.50;;
13067;SDS011;6600;51.362;6.686;2022-10-31T16:55:02;5.13;;;1.70;;
13067;SDS011;6600;51.362;6.686;2022-10-31T16:57:27;2.00;;;1.40;;
13067;SDS011;6600;51.362;6.686;2022-10-31T16:59:55;3.63;;;1.43;;
13067;SDS011;6600;51.362;6.686;2022-10-31T17:02:22;2.73;;;1.73;;
13067;SDS011;6600;51.362;6.686;2022-10-31T17:04:47;1.97;;;1.43;;
13067;SDS011;6600;51.362;6.686;2022-10-31T17:07:13;1.33;;;1.23;;
13067;SDS011;6600;51.362;6.686;2022-10-31T17:09:38;1.40;;;1.30;;
13067;SDS011;6600;51.362;6.686;2022-10-31T17:12:04;1.80;;;1.30;;
13067;SDS011;6600;51.362;6.686;2022-10-31T17:14:31;6.43;;;2.07;;
13067;SDS011;6600;51.362;6.686;2022-10-31T17:16:57;3.73;;;1.30;;
13067;SDS011;6600;51.362;6.686;2022-10-31T17:19:22;2.17;;;1.23;;
13067;SDS011;6600;51.362;6.686;2022-10-31T17:21:47;1.70;;;1.13;;
13067;SDS011;6600;51.362;6.686;2022-10-31T17:24:13;2.33;;;1.50;;
13067;SDS011;6600;51.362;6.686;2022-10-31T17:26:39;3.60;;;1.43;;
13067;SDS011;6600;51.362;6.686;2022-10-31T17:29:05;4.30;;;1.20;;
13067;SDS011;6600;51.362;6.686;2022-10-31T17:31:31;1.83;;;1.17;;
13067;SDS011;6600;51.362;6.686;2022-10-31T17:34:00;2.03;;;1.20;;
13067;SDS011;6600;51.362;6.686;2022-10-31T17:36:27;3.03;;;1.60;;
13067;SDS011;6600;51.362;6.686;2022-10-31T17:38:53;2.47;;;1.70;;